Time;durP1;ratioP1;P1;durP2;ratioP2;P2;SDS_P1;SDS_P2;PMS_P1;PMS_P2;Temp;Humidity;BMP_temperature;BMP_pressure;BME280_temperature;BME280_humidity;BME280_pressure;Samples;Min_cycle;Max_cycle;Signal;HPM_P1;HPM_P2
2021/05/02 00:01:03;;;;;;;16.83;15.23;;;11.10;83.30;;;;;;5022241;28;20263;-88
2021/05/02 00:03:29;;;;;;;18.87;17.17;;;11.00;82.90;;;;;;5022357;28;20209;-87
2021/05/02 00:05:55;;;;;;;20.13;18.30;;;11.00;84.30;;;;;;5020810;28;20681;-87
2021/05/02 00:08:21;;;;;;;20.30;18.50;;;11.10;86.80;;;;;;5002802;28;20207;-87
2021/05/02 00:10:47;;;;;;;18.10;16.40;;;11.00;87.80;;;;;;5002079;28;20203;-87
2021/05/02 00:13:13;;;;;;;15.60;14.20;;;10.80;77.20;;;;;;5002216;28;20186;-87
2021/05/02 00:15:39;;;;;;;16.80;15.20;;;10.80;82.00;;;;;;5006081;28;20202;-88
2021/05/02 00:18:05;;;;;;;17.33;15.83;;;10.80;82.50;;;;;;5021031;28;20700;-88
2021/05/02 00:20:31;;;;;;;15.90;14.50;;;10.80;82.00;;;;;;5021581;28;20181;-87
2021/05/02 00:23:01;;;;;;;14.87;13.60;;;10.80;81.70;;;;;;5022256;28;20216;-87
2021/05/02 00:25:31;;;;;;;17.43;15.63;;;10.80;81.60;;;;;;5020793;28;20188;-87
2021/05/02 00:27:57;;;;;;;16.00;14.50;;;10.80;82.20;;;;;;5019714;28;20217;-87
2021/05/02 00:30:24;;;;;;;15.83;14.53;;;10.80;82.60;;;;;;5020893;28;20201;-87
2021/05/02 00:32:52;;;;;;;15.87;14.37;;;10.70;83.60;;;;;;5022079;28;20269;-87
2021/05/02 00:35:21;;;;;;;15.77;14.40;;;10.70;80.10;;;;;;5019689;28;20774;-87
2021/05/02 00:37:47;;;;;;;14.83;13.43;;;10.70;77.50;;;;;;5000558;28;20349;-87
2021/05/02 00:40:16;;;;;;;13.77;12.53;;;10.70;74.80;;;;;;5000198;28;20588;-87
2021/05/02 00:42:48;;;;;;;11.77;10.60;;;10.80;72.40;;;;;;5001039;28;20611;-87
2021/05/02 00:45:38;;;;;;;10.27;9.27;;;10.80;61.30;;;;;;5002236;28;20282;-87
2021/05/02 00:48:36;;;;;;;11.03;9.90;;;10.70;58.50;;;;;;5001286;28;20234;-87
2021/05/02 00:51:06;;;;;;;12.70;11.40;;;10.90;61.70;;;;;;4967994;28;20245;-87
2021/05/02 00:53:53;;;;;;;11.07;10.07;;;10.80;63.40;;;;;;5000745;28;20190;-87
2021/05/02 00:56:23;;;;;;;9.90;9.00;;;10.80;63.20;;;;;;5001152;28;20230;-87
2021/05/02 00:58:53;;;;;;;10.83;9.93;;;10.80;68.70;;;;;;5001858;28;20210;-87
2021/05/02 01:01:22;;;;;;;11.67;10.67;;;10.80;70.30;;;;;;5000123;28;20655;-87
2021/05/02 01:03:49;;;;;;;11.63;10.60;;;10.80;70.30;;;;;;4999812;28;20185;-87
2021/05/02 01:06:21;;;;;;;11.03;10.07;;;10.90;73.20;;;;;;5007472;28;20170;-87
2021/05/02 01:08:50;;;;;;;10.70;9.80;;;10.80;73.80;;;;;;5020808;28;20229;-87
2021/05/02 01:11:17;;;;;;;12.13;11.03;;;10.80;75.50;;;;;;5018674;28;20252;-87
2021/05/02 01:13:53;;;;;;;11.30;10.30;;;10.80;75.20;;;;;;5020877;28;20179;-87
2021/05/02 01:16:22;;;;;;;12.47;11.27;;;11.00;74.70;;;;;;5020638;28;20167;-87
2021/05/02 01:18:49;;;;;;;12.60;11.50;;;11.00;74.20;;;;;;5021309;28;20206;-87
2021/05/02 01:21:17;;;;;;;12.93;11.70;;;10.90;75.30;;;;;;5019211;28;20191;-87
2021/05/02 01:23:43;;;;;;;13.10;11.93;;;10.90;75.00;;;;;;5021030;28;20175;-87
2021/05/02 01:26:09;;;;;;;11.40;10.50;;;11.00;75.70;;;;;;5020816;28;20180;-87
2021/05/02 01:28:36;;;;;;;11.70;10.60;;;10.80;76.10;;;;;;5021220;28;20233;-87
2021/05/02 01:31:03;;;;;;;11.80;10.83;;;10.90;75.30;;;;;;5020399;28;20251;-87
2021/05/02 01:33:30;;;;;;;11.73;10.73;;;10.90;74.80;;;;;;5020315;28;20270;-87
2021/05/02 01:35:55;;;;;;;11.43;10.43;;;10.90;76.00;;;;;;5021387;28;20299;-87
2021/05/02 01:38:24;;;;;;;11.13;10.23;;;11.00;74.60;;;;;;5019076;28;20240;-87
2021/05/02 01:40:53;;;;;;;11.10;10.10;;;11.00;75.30;;;;;;5019225;28;20191;-87
2021/05/02 01:43:19;;;;;;;12.23;11.13;;;11.00;75.50;;;;;;5019067;28;20181;-87
2021/05/02 01:45:44;;;;;;;11.77;10.77;;;11.00;75.60;;;;;;5019080;28;20596;-87
2021/05/02 01:48:13;;;;;;;10.70;9.90;;;11.00;76.40;;;;;;5020194;28;20232;-87
2021/05/02 01:50:45;;;;;;;13.13;12.03;;;10.90;76.40;;;;;;5021810;28;20207;-87
2021/05/02 01:53:12;;;;;;;13.67;12.47;;;10.90;77.50;;;;;;5023996;28;20178;-87
2021/05/02 01:55:38;;;;;;;13.77;12.57;;;10.80;77.20;;;;;;5021512;28;20255;-87
2021/05/02 01:58:08;;;;;;;13.53;11.87;;;10.80;76.10;;;;;;5013034;28;20210;-87
2021/05/02 02:00:43;;;;;;;12.50;11.40;;;10.80;76.30;;;;;;5021428;28;20201;-87
2021/05/02 02:03:10;;;;;;;12.27;11.27;;;10.80;77.30;;;;;;5023480;28;20270;-87
2021/05/02 02:05:37;;;;;;;14.17;13.00;;;10.80;76.90;;;;;;5024035;28;20239;-87
2021/05/02 02:08:05;;;;;;;11.27;10.37;;;10.80;75.90;;;;;;5023659;28;20199;-87
2021/05/02 02:10:32;;;;;;;12.30;11.10;;;10.90;77.60;;;;;;5023829;28;20218;-87
2021/05/02 02:12:58;;;;;;;12.13;11.13;;;10.90;77.90;;;;;;5022683;28;20195;-87
2021/05/02 02:15:26;;;;;;;11.70;10.67;;;10.80;76.50;;;;;;5024409;28;20182;-87
2021/05/02 02:17:56;;;;;;;11.87;10.87;;;10.80;76.30;;;;;;5022340;28;20232;-87
2021/05/02 02:20:24;;;;;;;11.70;10.77;;;10.80;75.90;;;;;;5024134;28;20190;-87
2021/05/02 02:22:56;;;;;;;11.13;10.20;;;10.80;75.80;;;;;;5024034;28;20175;-87
2021/05/02 02:25:27;;;;;;;12.50;11.40;;;10.70;76.00;;;;;;5024213;28;20178;-87
2021/05/02 02:27:56;;;;;;;13.67;12.57;;;10.90;75.50;;;;;;5022442;28;20211;-87
2021/05/02 02:30:25;;;;;;;12.50;11.50;;;10.90;77.60;;;;;;5003258;28;20194;-87
2021/05/02 02:32:51;;;;;;;12.87;11.60;;;10.70;79.40;;;;;;5003733;28;20273;-87
2021/05/02 02:35:18;;;;;;;15.17;13.67;;;10.60;77.80;;;;;;5015533;28;20198;-87
2021/05/02 02:37:49;;;;;;;14.93;13.63;;;10.30;80.40;;;;;;5020433;28;20205;-86
2021/05/02 02:40:16;;;;;;;15.50;14.10;;;10.00;80.30;;;;;;5015768;28;20202;-87
2021/05/02 02:42:46;;;;;;;15.43;14.13;;;9.90;81.00;;;;;;5023981;28;20177;-86
2021/05/02 02:45:13;;;;;;;14.43;13.17;;;10.00;79.00;;;;;;5030293;28;20254;-86
2021/05/02 02:47:49;;;;;;;13.87;12.77;;;10.00;79.20;;;;;;5033539;28;20240;-87
2021/05/02 02:50:17;;;;;;;14.97;13.67;;;10.00;79.10;;;;;;5042686;28;20192;-87
2021/05/02 02:52:45;;;;;;;14.60;13.33;;;9.90;78.70;;;;;;5028513;28;20209;-86
2021/05/02 02:55:17;;;;;;;14.10;12.93;;;10.00;78.70;;;;;;5023985;28;20185;-87
2021/05/02 02:57:49;;;;;;;15.67;14.27;;;10.20;78.40;;;;;;5040684;28;20283;-87
2021/05/02 03:00:17;;;;;;;15.07;13.77;;;10.20;78.10;;;;;;5040729;28;20189;-86
2021/05/02 03:02:49;;;;;;;15.17;13.77;;;10.30;78.80;;;;;;5008437;28;20189;-86
2021/05/02 03:05:15;;;;;;;14.43;13.20;;;10.30;78.80;;;;;;5020442;28;20201;-86
2021/05/02 03:07:42;;;;;;;16.40;14.70;;;10.30;78.80;;;;;;5026731;28;20251;-86
2021/05/02 03:10:09;;;;;;;16.67;15.23;;;10.30;78.30;;;;;;5042523;28;20216;-86
2021/05/02 03:12:38;;;;;;;15.43;14.03;;;10.30;78.00;;;;;;5042122;28;20190;-86
2021/05/02 03:15:04;;;;;;;16.33;14.87;;;10.20;78.10;;;;;;5042668;28;20181;-86
2021/05/02 03:17:31;;;;;;;13.43;12.33;;;10.20;77.40;;;;;;5034459;28;20224;-87
2021/05/02 03:20:11;;;;;;;14.23;12.93;;;10.30;77.20;;;;;;5003708;28;20181;-86
2021/05/02 03:22:51;;;;;;;13.87;12.67;;;10.30;77.50;;;;;;5003592;28;20201;-86
2021/05/02 03:25:23;;;;;;;14.27;12.93;;;10.40;75.50;;;;;;5003207;28;20172;-86
2021/05/02 03:28:14;;;;;;;11.77;10.83;;;10.40;74.90;;;;;;5002694;28;20203;-86
2021/05/02 03:30:46;;;;;;;14.33;13.03;;;10.50;73.80;;;;;;5003242;28;20178;-86
2021/05/02 03:33:13;;;;;;;13.63;12.53;;;10.40;73.60;;;;;;5009975;28;20256;-87
2021/05/02 03:35:42;;;;;;;12.77;11.57;;;10.40;75.30;;;;;;5005538;28;20191;-86
2021/05/02 03:38:20;;;;;;;11.90;10.90;;;10.40;76.30;;;;;;5006189;28;20221;-86
2021/05/02 03:40:46;;;;;;;13.07;11.93;;;10.40;76.80;;;;;;5019099;28;20176;-85
2021/05/02 03:43:12;;;;;;;13.10;11.97;;;10.40;76.70;;;;;;5018222;28;20224;-85
2021/05/02 03:45:38;;;;;;;13.17;11.97;;;10.50;75.60;;;;;;5018749;28;20176;-85
2021/05/02 03:48:04;;;;;;;14.87;13.43;;;10.50;75.50;;;;;;5007499;28;20216;-86
2021/05/02 03:50:30;;;;;;;14.30;12.93;;;10.60;75.70;;;;;;5012872;28;20254;-86
2021/05/02 03:52:56;;;;;;;14.23;12.93;;;10.60;75.50;;;;;;5012291;28;20210;-86
2021/05/02 03:55:21;;;;;;;13.17;12.07;;;10.60;75.30;;;;;;5022856;28;20815;-86
2021/05/02 03:57:47;;;;;;;14.23;13.10;;;10.50;76.80;;;;;;5022246;28;20243;-86
2021/05/02 04:00:14;;;;;;;13.53;12.20;;;10.50;77.10;;;;;;5022274;28;20249;-86
2021/05/02 04:02:39;;;;;;;12.93;11.63;;;10.50;77.10;;;;;;5021738;28;20194;-86
2021/05/02 04:05:06;;;;;;;14.73;13.33;;;10.50;76.80;;;;;;5021318;28;20179;-86
2021/05/02 04:07:32;;;;;;;13.43;12.23;;;10.50;77.40;;;;;;5019150;28;20219;-86
2021/05/02 04:09:58;;;;;;;13.17;11.97;;;10.40;76.60;;;;;;5022342;28;20183;-86
2021/05/02 04:12:23;;;;;;;12.60;11.50;;;10.20;76.70;;;;;;5021610;28;20263;-86
2021/05/02 04:14:49;;;;;;;12.13;11.13;;;10.20;76.40;;;;;;5023652;28;20630;-86
2021/05/02 04:17:16;;;;;;;15.00;13.60;;;10.30;76.70;;;;;;5021738;28;20221;-86
2021/05/02 04:19:46;;;;;;;13.00;11.80;;;10.20;76.60;;;;;;5023600;28;20180;-86
2021/05/02 04:22:19;;;;;;;13.67;12.47;;;10.20;76.80;;;;;;5022791;28;20190;-86
2021/05/02 04:24:49;;;;;;;14.80;13.47;;;10.20;78.00;;;;;;5024323;28;20279;-86
2021/05/02 04:27:15;;;;;;;13.67;12.47;;;10.20;77.60;;;;;;5022943;28;20340;-86
2021/05/02 04:29:42;;;;;;;15.73;14.33;;;10.20;77.60;;;;;;5023327;28;20273;-86
2021/05/02 04:32:08;;;;;;;14.63;13.33;;;10.00;79.60;;;;;;5023046;28;20192;-86
2021/05/02 04:34:33;;;;;;;16.63;15.00;;;9.80;79.90;;;;;;5021692;28;20209;-86
2021/05/02 04:36:59;;;;;;;17.10;15.27;;;9.80;79.70;;;;;;5022975;28;20221;-85
2021/05/02 04:39:26;;;;;;;17.83;15.50;;;9.70;80.00;;;;;;5022554;28;20216;-86
2021/05/02 04:41:52;;;;;;;16.43;14.93;;;9.60;80.40;;;;;;5023604;28;20178;-86
2021/05/02 04:44:19;;;;;;;15.90;14.37;;;9.60;79.60;;;;;;5023612;28;20184;-86
2021/05/02 04:46:45;;;;;;;15.73;14.27;;;9.50;79.80;;;;;;5020946;28;20234;-86
2021/05/02 04:49:11;;;;;;;15.87;14.47;;;9.40;79.40;;;;;;5021659;28;20200;-86
2021/05/02 04:51:38;;;;;;;14.83;13.47;;;9.30;80.30;;;;;;5021285;28;20822;-86
2021/05/02 04:54:06;;;;;;;15.97;14.40;;;9.30;80.00;;;;;;5021274;28;20272;-85
2021/05/02 04:56:32;;;;;;;15.13;13.63;;;9.40;79.50;;;;;;5022616;28;20316;-86
2021/05/02 04:58:58;;;;;;;15.87;14.47;;;9.30;79.80;;;;;;5004640;28;20220;-86
2021/05/02 05:01:24;;;;;;;17.23;15.47;;;9.20;80.30;;;;;;5015122;28;20242;-86
2021/05/02 05:03:49;;;;;;;15.73;14.00;;;9.20;80.20;;;;;;5021992;28;20177;-86
2021/05/02 05:06:15;;;;;;;15.40;13.93;;;9.20;80.20;;;;;;5022025;28;20753;-85
2021/05/02 05:08:41;;;;;;;14.50;13.20;;;9.30;79.30;;;;;;5022875;28;20217;-86
2021/05/02 05:11:07;;;;;;;15.53;14.10;;;9.20;79.10;;;;;;5021792;28;20193;-86
2021/05/02 05:13:34;;;;;;;15.70;14.13;;;9.30;79.40;;;;;;5023152;28;20239;-86
2021/05/02 05:16:01;;;;;;;16.90;15.27;;;9.20;79.30;;;;;;5020954;28;20216;-86
2021/05/02 05:18:27;;;;;;;16.27;14.87;;;9.10;79.40;;;;;;5018171;28;20220;-86
2021/05/02 05:20:54;;;;;;;16.80;15.30;;;9.00;80.40;;;;;;5001214;28;20213;-86
2021/05/02 05:23:20;;;;;;;15.20;13.80;;;9.00;80.50;;;;;;5002683;28;20186;-86
2021/05/02 05:25:46;;;;;;;15.30;13.80;;;9.00;81.00;;;;;;5005928;28;20185;-85
2021/05/02 05:28:12;;;;;;;17.50;16.00;;;9.00;81.20;;;;;;5005430;28;20202;-86
2021/05/02 05:30:38;;;;;;;15.10;13.70;;;9.00;81.20;;;;;;5005766;28;20213;-86
2021/05/02 05:33:06;;;;;;;16.97;14.87;;;9.10;81.10;;;;;;5014072;28;20731;-86
2021/05/02 05:35:33;;;;;;;15.97;14.47;;;9.10;80.90;;;;;;5016607;28;20202;-86
2021/05/02 05:37:59;;;;;;;16.60;15.03;;;9.20;80.70;;;;;;5006042;28;20221;-86
2021/05/02 05:40:27;;;;;;;15.80;14.40;;;9.30;80.10;;;;;;5006375;28;20175;-86
2021/05/02 05:42:54;;;;;;;16.80;15.30;;;9.20;80.70;;;;;;4989564;28;20210;-86
2021/05/02 05:45:20;;;;;;;16.77;15.17;;;9.20;81.00;;;;;;5006341;28;20241;-86
2021/05/02 05:47:47;;;;;;;15.73;14.23;;;9.10;81.10;;;;;;5007059;28;20289;-86
2021/05/02 05:50:14;;;;;;;16.50;15.00;;;9.10;81.40;;;;;;5006250;28;20182;-86
2021/05/02 05:52:41;;;;;;;16.00;14.60;;;9.00;82.30;;;;;;5016711;28;20248;-86
2021/05/02 05:55:08;;;;;;;16.07;14.67;;;9.10;81.10;;;;;;5025520;28;20239;-86
2021/05/02 05:57:34;;;;;;;15.80;14.20;;;9.20;82.00;;;;;;5024753;28;20221;-86
2021/05/02 06:00:00;;;;;;;16.17;14.70;;;9.20;81.50;;;;;;5024027;28;20177;-86
2021/05/02 06:02:26;;;;;;;17.53;15.93;;;9.30;81.60;;;;;;5026195;28;20189;-86
2021/05/02 06:04:52;;;;;;;15.50;14.17;;;9.40;80.90;;;;;;5023908;28;20364;-85
2021/05/02 06:07:18;;;;;;;17.63;15.77;;;9.30;81.30;;;;;;5020779;28;20225;-85
2021/05/02 06:09:43;;;;;;;16.37;14.87;;;9.30;80.60;;;;;;5015265;28;20708;-86
2021/05/02 06:12:09;;;;;;;17.13;15.43;;;9.40;80.70;;;;;;5008262;28;20250;-86
2021/05/02 06:14:35;;;;;;;15.07;13.67;;;9.40;81.30;;;;;;5025294;28;20220;-85
2021/05/02 06:17:01;;;;;;;16.40;14.87;;;9.60;79.80;;;;;;5025158;28;20204;-85
2021/05/02 06:19:28;;;;;;;16.80;15.40;;;9.70;78.70;;;;;;5026381;28;20178;-86
2021/05/02 06:21:53;;;;;;;13.63;12.50;;;9.50;79.20;;;;;;5024754;28;20181;-86
2021/05/02 06:24:19;;;;;;;15.63;14.33;;;9.50;79.70;;;;;;5006792;28;20662;-85
2021/05/02 06:26:45;;;;;;;14.13;12.93;;;9.80;78.40;;;;;;5010294;28;20270;-87
2021/05/02 06:29:11;;;;;;;15.20;13.80;;;9.80;77.80;;;;;;5024036;28;20185;-87
2021/05/02 06:31:37;;;;;;;16.27;14.67;;;9.90;77.30;;;;;;5024114;28;20178;-87
2021/05/02 06:34:03;;;;;;;15.33;14.03;;;9.90;76.30;;;;;;5023586;28;20273;-87
2021/05/02 06:36:28;;;;;;;14.90;13.50;;;9.80;77.20;;;;;;5021988;28;20217;-86
2021/05/02 06:38:54;;;;;;;16.90;15.30;;;9.70;77.60;;;;;;5024898;28;20221;-88
2021/05/02 06:41:20;;;;;;;13.83;12.63;;;9.80;78.60;;;;;;5017521;28;20206;-88
2021/05/02 06:43:45;;;;;;;15.03;13.73;;;9.80;77.10;;;;;;5024323;28;20656;-86
2021/05/02 06:46:32;;;;;;;15.33;13.90;;;10.00;76.90;;;;;;5017297;28;20650;-87
2021/05/02 06:49:01;;;;;;;15.90;14.33;;;10.20;75.70;;;;;;5024405;28;20221;-87
2021/05/02 06:51:27;;;;;;;13.87;12.70;;;10.40;75.00;;;;;;5021577;28;20213;-87
2021/05/02 06:53:55;;;;;;;16.10;14.00;;;10.30;74.10;;;;;;5015971;28;20197;-87
2021/05/02 06:56:21;;;;;;;14.07;12.77;;;10.50;73.00;;;;;;5018257;28;20249;-86
2021/05/02 06:58:51;;;;;;;14.57;13.17;;;10.60;70.30;;;;;;5023265;28;20216;-87
2021/05/02 07:01:16;;;;;;;14.50;13.20;;;10.60;70.20;;;;;;5022201;28;20816;-87
2021/05/02 07:03:42;;;;;;;13.03;12.00;;;10.60;71.70;;;;;;4995668;28;20224;-87
2021/05/02 07:06:08;;;;;;;14.27;12.87;;;10.60;69.40;;;;;;5009495;28;20200;-87
2021/05/02 07:08:34;;;;;;;14.07;12.87;;;10.70;69.80;;;;;;5009117;28;20210;-88
2021/05/02 07:11:00;;;;;;;14.50;13.20;;;10.40;70.90;;;;;;5012518;28;20788;-86
2021/05/02 07:13:29;;;;;;;14.10;12.70;;;10.50;69.90;;;;;;5023078;28;20182;-88
2021/05/02 07:15:55;;;;;;;14.43;13.03;;;10.40;68.50;;;;;;5015426;28;20178;-88
2021/05/02 07:18:22;;;;;;;13.43;12.23;;;10.40;69.10;;;;;;5003508;28;20224;-89
2021/05/02 07:20:50;;;;;;;12.50;11.50;;;10.50;68.40;;;;;;5022216;28;20181;-89
2021/05/02 07:23:16;;;;;;;14.23;12.97;;;10.60;68.40;;;;;;5022501;28;20185;-88
2021/05/02 07:25:42;;;;;;;12.83;11.73;;;10.70;68.40;;;;;;5006292;28;20183;-86
2021/05/02 07:28:07;;;;;;;15.67;14.07;;;10.70;67.80;;;;;;5022194;28;20204;-87
2021/05/02 07:30:33;;;;;;;13.63;12.23;;;11.00;65.00;;;;;;5023055;28;20260;-88
2021/05/02 07:32:59;;;;;;;14.23;13.03;;;11.20;63.90;;;;;;5023893;28;20181;-87
2021/05/02 07:35:25;;;;;;;15.67;14.13;;;11.10;64.80;;;;;;5021408;28;20665;-87
2021/05/02 07:37:51;;;;;;;15.23;13.93;;;11.10;63.50;;;;;;5023402;28;20214;-87
2021/05/02 07:40:16;;;;;;;14.60;13.40;;;11.20;61.90;;;;;;5022981;28;20183;-87
2021/05/02 07:42:42;;;;;;;14.63;13.43;;;11.10;61.20;;;;;;5003812;28;20706;-88
2021/05/02 07:45:08;;;;;;;15.23;13.73;;;11.10;61.70;;;;;;5007978;28;20253;-89
2021/05/02 07:47:35;;;;;;;15.43;14.03;;;11.00;61.70;;;;;;5017484;28;20215;-89
2021/05/02 07:50:03;;;;;;;14.87;13.50;;;11.00;62.00;;;;;;5022281;28;20266;-86
2021/05/02 07:52:28;;;;;;;14.00;12.80;;;11.00;60.30;;;;;;5002482;28;20218;-85
2021/05/02 07:54:54;;;;;;;14.50;13.17;;;10.90;61.80;;;;;;5012330;28;20189;-86
2021/05/02 07:57:20;;;;;;;14.77;13.33;;;10.90;63.30;;;;;;5017337;28;20219;-87
2021/05/02 07:59:46;;;;;;;15.37;13.97;;;11.20;61.40;;;;;;5012303;28;20190;-87
2021/05/02 08:02:12;;;;;;;14.20;13.00;;;11.30;61.00;;;;;;5009793;28;20249;-87
2021/05/02 08:04:38;;;;;;;14.97;13.63;;;11.30;62.20;;;;;;5013435;28;20178;-89
2021/05/02 08:07:05;;;;;;;14.27;12.97;;;11.50;61.50;;;;;;5022703;28;20177;-87
2021/05/02 08:09:32;;;;;;;14.93;13.50;;;11.80;61.30;;;;;;5024658;28;20185;-88
2021/05/02 08:11:57;;;;;;;15.37;13.97;;;11.90;60.20;;;;;;5021552;28;20201;-88
2021/05/02 08:14:23;;;;;;;15.73;14.30;;;12.00;59.30;;;;;;5023721;28;20187;-89
2021/05/02 08:16:49;;;;;;;16.20;14.70;;;12.00;58.50;;;;;;5023513;28;20261;-89
2021/05/02 08:19:17;;;;;;;15.10;13.60;;;12.20;58.90;;;;;;5023059;28;20192;-88
2021/05/02 08:21:43;;;;;;;16.13;14.83;;;12.10;59.30;;;;;;5024099;28;20679;-87
2021/05/02 08:24:09;;;;;;;16.87;15.43;;;12.20;56.90;;;;;;5023486;28;20187;-88
2021/05/02 08:26:35;;;;;;;14.87;13.67;;;12.20;58.60;;;;;;5015867;28;20215;-88
2021/05/02 08:29:01;;;;;;;15.67;14.37;;;12.30;57.90;;;;;;5017217;28;20186;-88
2021/05/02 08:31:27;;;;;;;16.77;15.23;;;12.30;57.90;;;;;;5035597;28;20199;-88
2021/05/02 08:33:53;;;;;;;16.23;14.77;;;12.20;58.90;;;;;;5029276;28;20184;-87
2021/05/02 08:36:19;;;;;;;17.07;15.53;;;12.70;57.90;;;;;;5023986;28;20309;-88
2021/05/02 08:38:45;;;;;;;16.37;14.97;;;13.10;56.20;;;;;;5021906;28;20220;-88
2021/05/02 08:41:11;;;;;;;17.77;15.73;;;13.20;55.90;;;;;;5022582;28;20181;-88
2021/05/02 08:43:37;;;;;;;16.93;15.43;;;13.20;54.10;;;;;;5023173;28;20191;-89
2021/05/02 08:46:03;;;;;;;17.70;16.03;;;12.80;56.10;;;;;;5023703;28;20192;-88
2021/05/02 08:48:29;;;;;;;17.40;15.80;;;12.60;55.20;;;;;;5022546;28;20210;-87
2021/05/02 08:50:57;;;;;;;17.70;16.07;;;12.20;57.20;;;;;;4997644;28;20211;-88
2021/05/02 08:53:24;;;;;;;17.43;15.67;;;11.90;58.10;;;;;;5010423;28;20179;-88
2021/05/02 08:55:51;;;;;;;18.17;16.37;;;12.10;56.40;;;;;;5018792;28;20201;-87
2021/05/02 08:58:18;;;;;;;17.63;16.03;;;12.10;57.00;;;;;;5019970;28;20300;-87
2021/05/02 09:00:45;;;;;;;17.23;15.53;;;12.30;56.40;;;;;;5021253;28;20195;-87
2021/05/02 09:03:11;;;;;;;17.77;15.90;;;12.40;55.00;;;;;;5022345;28;20215;-88
2021/05/02 09:05:47;;;;;;;16.57;15.07;;;12.40;55.90;;;;;;5015580;28;20196;-88
2021/05/02 09:08:33;;;;;;;17.87;16.37;;;12.60;55.40;;;;;;5012944;28;20219;-85
2021/05/02 09:11:00;;;;;;;18.93;17.23;;;12.80;57.50;;;;;;5021871;28;20264;-87
2021/05/02 09:13:27;;;;;;;19.03;17.07;;;12.70;57.60;;;;;;5021824;28;20183;-85
2021/05/02 09:16:06;;;;;;;19.50;17.53;;;12.60;58.70;;;;;;5008831;28;20188;-87
2021/05/02 09:18:37;;;;;;;17.93;16.33;;;12.70;56.70;;;;;;5008751;28;20213;-87
2021/05/02 09:21:04;;;;;;;18.87;17.17;;;13.10;57.00;;;;;;5021838;28;20176;-86
2021/05/02 09:23:42;;;;;;;17.87;16.23;;;12.80;56.40;;;;;;5021197;28;20249;-85
2021/05/02 09:26:21;;;;;;;18.87;17.17;;;12.90;56.00;;;;;;5020157;28;20235;-86
2021/05/02 09:28:49;;;;;;;20.17;18.30;;;13.10;56.60;;;;;;5004161;28;20261;-87
2021/05/02 09:31:23;;;;;;;18.47;16.87;;;13.20;56.40;;;;;;5009864;28;20185;-91
2021/05/02 09:33:49;;;;;;;20.33;18.60;;;13.10;57.80;;;;;;5017401;28;20185;-92
2021/05/02 09:36:18;;;;;;;20.47;18.57;;;12.80;61.20;;;;;;5010349;28;20181;-87
2021/05/02 09:38:44;;;;;;;21.03;18.63;;;12.80;59.90;;;;;;5019439;28;20194;-88
2021/05/02 09:41:12;;;;;;;16.67;15.27;;;12.70;63.30;;;;;;5018410;28;20773;-88
2021/05/02 09:43:44;;;;;;;14.53;13.37;;;12.50;60.40;;;;;;5013026;28;20191;-89
2021/05/02 09:46:32;;;;;;;14.90;13.77;;;12.40;58.60;;;;;;5016831;28;20254;-88
2021/05/02 09:49:15;;;;;;;18.07;16.57;;;12.40;63.70;;;;;;5020735;28;20211;-90
2021/05/02 09:51:47;;;;;;;14.50;13.40;;;12.40;64.60;;;;;;5018835;28;20185;-90
2021/05/02 09:54:15;;;;;;;15.17;13.87;;;12.40;57.90;;;;;;5016623;28;20196;-90
2021/05/02 09:56:44;;;;;;;15.07;13.87;;;12.60;60.30;;;;;;5020737;28;20178;-90
2021/05/02 09:59:20;;;;;;;15.13;14.03;;;12.80;56.80;;;;;;5021136;28;20205;-91
2021/05/02 10:02:08;;;;;;;16.37;14.97;;;13.10;61.00;;;;;;5001250;28;20204;-90
2021/05/02 10:04:34;;;;;;;19.63;17.83;;;13.40;62.10;;;;;;5005365;28;20198;-89
2021/05/02 10:07:08;;;;;;;18.83;17.33;;;13.50;56.50;;;;;;5015198;28;20243;-90
2021/05/02 10:12:41;;;;;;;20.00;18.30;;;13.30;59.50;;;;;;5023616;28;20220;-90
2021/05/02 10:15:08;;;;;;;18.47;16.97;;;13.00;58.80;;;;;;5010842;28;20195;-88
2021/05/02 10:17:35;;;;;;;21.30;19.40;;;12.90;58.50;;;;;;5024345;28;20209;-88
2021/05/02 10:20:01;;;;;;;20.33;18.50;;;13.00;61.00;;;;;;5007145;28;20237;-87
2021/05/02 10:22:30;;;;;;;20.20;18.40;;;12.90;56.90;;;;;;5025288;28;20556;-86
2021/05/02 10:24:57;;;;;;;21.13;19.23;;;13.00;60.60;;;;;;5023638;28;20187;-87
2021/05/02 10:27:23;;;;;;;21.83;19.93;;;12.90;67.20;;;;;;5021708;28;20243;-87
2021/05/02 10:29:50;;;;;;;22.00;20.10;;;12.70;72.10;;;;;;5023613;28;20580;-86
2021/05/02 10:32:22;;;;;;;20.70;19.00;;;12.70;74.70;;;;;;5007033;28;20252;-86
2021/05/02 10:34:51;;;;;;;22.43;20.33;;;12.70;73.80;;;;;;5006335;28;20185;-88
2021/05/02 10:37:29;;;;;;;20.13;18.23;;;12.80;73.70;;;;;;5006873;28;20224;-88
2021/05/02 10:39:57;;;;;;;20.03;18.37;;;12.80;65.10;;;;;;5023083;28;20181;-88
2021/05/02 10:42:39;;;;;;;19.47;17.77;;;12.90;61.30;;;;;;5020909;28;20677;-88
2021/05/02 10:45:30;;;;;;;19.53;17.63;;;13.10;60.20;;;;;;5020567;28;20188;-88
2021/05/02 10:48:19;;;;;;;18.40;16.90;;;13.60;61.20;;;;;;5006324;28;20236;-89
2021/05/02 10:50:46;;;;;;;20.00;18.40;;;14.10;57.60;;;;;;4996036;28;20193;-91
2021/05/02 10:53:14;;;;;;;17.97;16.57;;;14.60;61.10;;;;;;5024976;28;20269;-88
2021/05/02 10:55:49;;;;;;;18.33;16.77;;;14.80;52.90;;;;;;5024833;28;20546;-89
2021/05/02 10:58:26;;;;;;;15.30;14.00;;;14.70;54.10;;;;;;5022984;28;20216;-90
2021/05/02 11:01:03;;;;;;;15.47;14.07;;;14.50;53.30;;;;;;5022119;28;20188;-89
2021/05/02 11:03:41;;;;;;;15.63;14.17;;;14.00;58.90;;;;;;5024355;28;20173;-89
2021/05/02 11:06:10;;;;;;;13.03;11.83;;;13.70;57.60;;;;;;5022301;28;20657;-91
2021/05/02 11:08:59;;;;;;;12.77;11.80;;;13.40;57.60;;;;;;5022632;28;20693;-89
2021/05/02 11:11:30;;;;;;;12.50;11.40;;;13.30;57.90;;;;;;5020440;28;20180;-89
2021/05/02 11:16:44;;;;;;;11.60;10.70;;;13.70;57.20;;;;;;5019469;28;20601;-90
2021/05/02 11:19:18;;;;;;;10.00;9.10;;;13.90;54.70;;;;;;5006143;28;20213;-90
2021/05/02 11:21:50;;;;;;;9.90;9.20;;;14.30;46.00;;;;;;5021749;28;20670;-89
2021/05/02 11:24:17;;;;;;;10.60;9.80;;;14.60;47.50;;;;;;5012718;28;20189;-90
2021/05/02 11:26:46;;;;;;;12.07;10.97;;;14.10;47.20;;;;;;5003250;28;20264;-90
2021/05/02 11:29:16;;;;;;;10.80;9.90;;;14.40;52.20;;;;;;5024550;28;20210;-89
2021/05/02 11:31:43;;;;;;;10.87;10.07;;;14.70;49.80;;;;;;5005902;28;20178;-89
2021/05/02 11:34:09;;;;;;;10.37;9.60;;;15.10;50.60;;;;;;5023455;28;20773;-89
2021/05/02 11:36:42;;;;;;;10.83;10.03;;;15.20;52.20;;;;;;5022443;28;20188;-90
2021/05/02 11:39:30;;;;;;;10.13;9.37;;;15.20;48.00;;;;;;5022115;28;20216;-88
2021/05/02 11:42:03;;;;;;;10.37;9.37;;;15.00;45.20;;;;;;5022217;28;20179;-88
2021/05/02 11:44:31;;;;;;;9.97;9.10;;;14.80;49.10;;;;;;5021846;28;20208;-89
2021/05/02 11:47:09;;;;;;;9.20;8.47;;;14.90;49.40;;;;;;5021559;28;20180;-87
2021/05/02 11:49:40;;;;;;;9.63;8.63;;;15.10;45.00;;;;;;5021394;28;20335;-86
2021/05/02 11:52:06;;;;;;;8.70;7.83;;;15.70;45.40;;;;;;5021231;28;20183;-88
2021/05/02 11:54:32;;;;;;;8.33;7.73;;;15.80;41.30;;;;;;5020792;28;20190;-88
2021/05/02 11:56:58;;;;;;;7.93;7.23;;;15.60;42.80;;;;;;5020192;28;20206;-88
2021/05/02 11:59:24;;;;;;;8.27;7.60;;;15.30;41.80;;;;;;5020722;28;20199;-89
2021/05/02 12:01:49;;;;;;;8.57;7.87;;;15.20;41.00;;;;;;5020737;28;20264;-89
2021/05/02 12:04:18;;;;;;;8.43;7.63;;;14.80;41.20;;;;;;5012165;28;20187;-88
2021/05/02 12:06:47;;;;;;;8.00;7.30;;;14.80;48.20;;;;;;5019185;28;20187;-89
2021/05/02 12:09:21;;;;;;;7.60;6.90;;;14.90;44.70;;;;;;5014497;28;20190;-87
2021/05/02 12:12:00;;;;;;;8.40;7.70;;;14.80;45.40;;;;;;5017315;28;20204;-86
2021/05/02 12:14:31;;;;;;;7.57;6.97;;;15.00;46.20;;;;;;5017399;28;20284;-87
2021/05/02 12:16:59;;;;;;;6.70;6.20;;;15.50;41.70;;;;;;5012830;28;20221;-87
2021/05/02 12:19:29;;;;;;;7.20;6.60;;;16.00;36.80;;;;;;5008244;28;20192;-87
2021/05/02 12:21:55;;;;;;;6.90;6.40;;;16.60;38.00;;;;;;5015927;28;20190;-88
2021/05/02 12:24:27;;;;;;;6.97;6.43;;;17.20;35.60;;;;;;5013930;28;20186;-89
2021/05/02 12:26:58;;;;;;;6.60;6.10;;;17.70;35.70;;;;;;5020947;28;20194;-89
2021/05/02 12:29:28;;;;;;;6.80;6.20;;;17.90;34.90;;;;;;5018194;28;20173;-89
2021/05/02 12:32:07;;;;;;;6.77;6.20;;;17.40;36.10;;;;;;5016094;28;20208;-87
2021/05/02 12:34:37;;;;;;;7.27;5.40;;;17.60;36.10;;;;;;5019764;28;20177;-87
2021/05/02 12:37:24;;;;;;;6.13;5.53;;;18.40;34.40;;;;;;5010534;28;20197;-87
2021/05/02 12:39:54;;;;;;;6.10;5.60;;;18.80;32.30;;;;;;5012709;28;20246;-87
2021/05/02 12:42:36;;;;;;;5.67;5.17;;;18.20;33.90;;;;;;5017334;28;20185;-87
2021/05/02 12:45:04;;;;;;;5.43;5.03;;;17.60;33.10;;;;;;5015710;28;20254;-88